Stations météo

Publicité
Bourg-St-Maurice, France (7497): Température de l'air & dewpoint: 14.09.2020 21:00:00 - 20.09.2020 21:00:00 (CEST)Bourg-St-Maurice, France (7497): Température de l'air -20cm & Température de l'air -100cm: 14.09.2020 21:00:00 - 20.09.2020 21:00:00 (CEST)Bourg-St-Maurice, France (7497): Vitesse du vent & gusts: 14.09.2020 21:00:00 - 20.09.2020 21:00:00 (CEST)Bourg-St-Maurice, France (7497): Direction du vent: 14.09.2020 21:00:00 - 20.09.2020 21:00:00 (CEST)Bourg-St-Maurice, France (7497): Ensoleillement: 14.09.2020 21:00:00 - 20.09.2020 21:00:00 (CEST)Bourg-St-Maurice, France (7497): Quantités de précipitations: 14.09.2020 21:00:00 - 20.09.2020 21:00:00 (CEST)
Date & Time tt [°C] td [°C] tt -20cm [°C] tt -100cm [°C] ff [km/h] ff [knt] fx [km/h] fx [knt] dd sd [min] rr [mm]
20.09.2020 21:00:00 15,5 13,2 19,7 19,8 4 2 13 7 SSW 0 0,0
20.09.2020 20:00:00 16,1 13,4 19,7 19,8 4 2 14 7 SW 0 0,0
20.09.2020 19:00:00 17,2 13,9 19,6 19,8 4 2 19 11 SW 0 0,0
20.09.2020 18:00:00 18,2 14,3 19,5 19,8 5 3 24 13 SW 0 0,0
20.09.2020 17:00:00 19,6 14,0 19,4 19,8 5 3 19 11 SSW 4 0,0
20.09.2020 16:00:00 21,6 15,2 19,3 19,8 8 4 18 10 SSW 18 0,0
20.09.2020 15:00:00 20,0 13,7 19,2 19,8 5 3 13 7 S 5 0,0
20.09.2020 14:00:00 18,6 13,2 19,2 19,8 5 3 10 5 SSW 0 0,0
20.09.2020 13:00:00 17,7 13,0 19,1 19,8 0 0 8 4 N 0 0,0
20.09.2020 12:00:00 17,0 12,9 19,1 19,8 3 2 8 4 S 0 0,0
20.09.2020 11:00:00 14,9 12,6 19,2 19,8 3 2 7 4 N 0 0,0
20.09.2020 10:00:00 13,5 12,7 19,2 19,8 5 3 12 6 S 0 0,0
20.09.2020 09:00:00 12,9 12,1 19,2 19,7 3 2 8 4 N 4 0,0
20.09.2020 08:00:00 11,8 11,6 19,5 19,8 5 3 8 5 N 0 0,0
20.09.2020 07:00:00 11,4 10,9 19,6 19,8 3 2 6 4 SW 0 0,0
20.09.2020 06:00:00 11,8 11,3 19,7 19,8 3 1 9 5 SW 0 0,0
20.09.2020 05:00:00 12,0 11,5 19,8 19,8 4 2 8 4 N 0 0,0
20.09.2020 04:00:00 12,5 11,9 19,9 19,9 5 3 10 5 NNE 0 0,0
20.09.2020 03:00:00 12,7 12,2 20,0 19,9 4 2 11 6 NNW 0 0,2
20.09.2020 02:00:00 12,5 12,0 20,1 19,9 0 0 6 3 N 0 0,0
20.09.2020 01:00:00 12,9 12,1 20,2 19,9 3 2 5 3 N 0 0,0
20.09.2020 00:00:00 13,5 12,6 20,2 19,9 3 2 9 5 WSW 0 0,0
19.09.2020 23:00:00 14,7 13,2 20,2 19,8 7 4 14 8 NNW 0 0,0
19.09.2020 22:00:00 14,7 13,6 20,3 19,9 0 0 7 4 N 0 0,0
19.09.2020 21:00:00 15,0 13,4 20,4 19,9 4 2 7 4 SSW 0 0,0
19.09.2020 20:00:00 16,6 13,3 20,3 19,9 7 4 19 10 NNW 0 0,0
19.09.2020 19:00:00 17,4 14,1 20,3 19,9 7 4 32 17 SW 0 0,6
19.09.2020 18:00:00 22,8 9,6 20,2 19,9 16 8 42 23 NE 21 0,0
19.09.2020 17:00:00 24,9 9,2 20,1 19,9 16 9 38 20 NE 53 0,0
19.09.2020 16:00:00 24,1 13,6 19,9 19,9 3 2 28 15 W 15 0,0
19.09.2020 15:00:00 25,7 9,9 19,8 19,9 13 7 34 19 NE 50 0,0
19.09.2020 14:00:00 25,3 10,3 19,7 19,9 11 6 29 15 ENE 42 0,0
19.09.2020 13:00:00 22,5 12,1 19,7 19,9 6 4 30 16 N 38 0,0
19.09.2020 12:00:00 17,1 14,4 19,8 19,9 15 8 26 14 NNW 0 0,0
19.09.2020 11:00:00 15,4 14,3 19,8 19,9 2 1 7 4 WSW 0 0,0
19.09.2020 10:00:00 14,8 13,8 19,8 19,9 4 2 8 4 N 0 0,0
19.09.2020 09:00:00 14,8 13,7 19,9 19,9 3 2 9 5 SSW 0 0,0
19.09.2020 08:00:00 14,5 12,9 20,0 19,9 6 3 11 6 NNW 0 0,4
19.09.2020 07:00:00 15,4 12,3 20,1 19,9 8 4 16 9 WSW 0 0,2
19.09.2020 06:00:00 15,4 12,3 20,1 19,9 3 2 11 6 WNW 0 0,0
19.09.2020 05:00:00 15,2 11,4 20,2 19,9 4 2 19 10 WSW 0 0,0
19.09.2020 04:00:00 17,2 10,8 20,3 19,9 5 3 21 12 WSW 0 0,0
19.09.2020 03:00:00 15,5 11,3 20,4 19,9 6 3 16 9 SW 0 0,0
19.09.2020 02:00:00 15,1 11,1 20,5 19,9 4 2 14 8 SW 0 0,0
19.09.2020 01:00:00 14,8 11,2 20,6 19,9 3 2 10 5 NW 0 0,0
19.09.2020 00:00:00 15,5 11,5 20,7 19,9 4 2 7 4 NNW 0 0,0
18.09.2020 23:00:00 16,5 11,6 20,7 19,9 6 3 12 7 NW 0 0,0
18.09.2020 22:00:00 16,7 12,0 20,8 19,9 0 0 7 4 N 0 0,0
18.09.2020 21:00:00 18,2 12,0 20,8 19,9 4 2 9 5 NNW 0 0,0
18.09.2020 20:00:00 19,3 12,6 20,8 20,0 4 2 13 7 N 0 0,0
18.09.2020 19:00:00 21,4 12,0 20,7 19,9 5 3 20 11 WNW 8 0,0
18.09.2020 18:00:00 22,8 12,4 20,6 19,9 10 5 18 10 WNW 60 0,0
18.09.2020 17:00:00 25,3 15,0 20,4 20,0 4 2 8 4 W 60 0,0
18.09.2020 16:00:00 25,9 13,7 20,2 20,0 4 2 11 6 W 45 0,0
18.09.2020 15:00:00 27,6 6,9 19,9 19,9 5 3 12 6 S 60 0,0
18.09.2020 14:00:00 26,7 9,5 19,7 19,9 4 2 9 5 S 60 0,0
18.09.2020 13:00:00 24,6 11,2 19,5 19,9 4 2 11 6 SSE 60 0,0
18.09.2020 12:00:00 21,7 8,9 19,5 20,0 3 1 11 6 E 60 0,0
18.09.2020 11:00:00 18,0 13,1 19,5 20,0 3 1 10 5 NNE 60 0,0
18.09.2020 10:00:00 15,9 11,7 19,7 20,0 3 2 7 4 ENE 60 0,0
18.09.2020 09:00:00 12,5 12,5 19,8 20,0 3 2 7 4 N 21 0,0
18.09.2020 08:00:00 11,1 10,8 19,9 20,0 3 1 6 3 NNE 0 0,0
18.09.2020 07:00:00 11,2 10,6 20,0 20,0 3 1 6 3 N 0 0,0
18.09.2020 06:00:00 11,7 11,1 20,1 20,0 3 2 5 3 N 0 0,0
18.09.2020 05:00:00 12,3 11,7 20,2 20,0 4 2 8 5 N 0 0,2
18.09.2020 04:00:00 12,8 12,2 20,3 20,0 3 1 11 6 N 0 0,0
18.09.2020 03:00:00 13,4 12,8 20,4 20,0 5 3 10 5 NNW 0 0,0
18.09.2020 02:00:00 13,8 13,0 20,5 20,0 3 1 8 4 N 0 0,0
18.09.2020 01:00:00 14,6 13,1 20,5 20,0 3 1 13 7 W 0 0,0
18.09.2020 00:00:00 15,2 14,4 20,6 20,0 7 4 10 5 NNW 0 0,0
17.09.2020 23:00:00 15,6 14,6 20,7 20,0 3 2 16 9 SW 0 0,0
17.09.2020 22:00:00 15,9 14,3 20,8 20,0 6 3 18 10 NW 0 0,6
17.09.2020 21:00:00 16,5 13,8 20,9 20,0 11 6 23 12 NW 0 1,7
17.09.2020 20:00:00 16,8 15,1 21,0 20,0 5 3 32 17 NW 0 16,7
17.09.2020 19:00:00 22,6 14,4 21,0 20,0 4 2 10 5 W 13 0,0
17.09.2020 18:00:00 23,9 14,3 20,9 20,0 6 3 14 8 W 54 0,0
17.09.2020 17:00:00 27,3 12,5 20,7 20,0 6 4 16 9 S 60 0,0
17.09.2020 16:00:00 28,4 11,5 20,5 20,0 7 4 14 8 SW 60 0,0
17.09.2020 15:00:00 28,0 9,8 20,2 20,0 6 3 13 7 SSW 60 0,0
17.09.2020 14:00:00 26,9 10,6 20,1 20,0 6 3 11 6 S 60 0,0
17.09.2020 13:00:00 24,8 9,9 19,9 20,0 5 3 10 5 S 60 0,0
17.09.2020 12:00:00 22,5 10,0 19,9 20,0 4 2 7 4 SSE 60 0,0
17.09.2020 11:00:00 19,9 10,9 19,9 20,0 3 1 6 4 SE 60 0,0
17.09.2020 10:00:00 16,5 10,6 20,0 20,0 3 1 5 3 E 60 0,0
17.09.2020 09:00:00 12,6 10,5 20,2 20,0 0 0 5 3 N 23 0,0
17.09.2020 08:00:00 10,3 9,2 20,3 20,0 4 2 6 3 N 0 0,0
17.09.2020 07:00:00 10,7 9,3 20,5 20,0 3 2 7 4 NW 0 0,0
17.09.2020 06:00:00 10,6 9,4 20,6 20,0 0 0 8 4 N 0 0,0
17.09.2020 05:00:00 11,0 9,9 20,8 20,0 5 3 7 4 NNW 0 0,2
17.09.2020 04:00:00 11,3 9,9 20,9 20,0 3 2 6 3 NE 0 0,0
17.09.2020 03:00:00 11,8 10,4 21,0 20,0 2 1 6 4 NNE 0 0,0
17.09.2020 02:00:00 12,2 10,8 21,2 20,0 3 2 6 3 N 0 0,0
17.09.2020 01:00:00 12,6 11,3 21,3 20,0 3 2 7 4 N 0 0,0
17.09.2020 00:00:00 13,1 11,0 21,4 20,0 2 1 9 5 WSW 0 0,0
16.09.2020 23:00:00 13,9 12,1 21,5 20,0 3 2 7 4 N 0 0,0
16.09.2020 22:00:00 15,0 13,4 21,5 20,0 4 2 6 3 N 0 0,0
16.09.2020 21:00:00 16,3 13,6 21,6 20,0 3 2 11 6 NE 0 0,0
16.09.2020 20:00:00 17,2 13,3 21,5 20,0 4 2 18 10 NNW 0 0,4
16.09.2020 19:00:00 18,0 13,9 21,5 20,0 8 4 15 8 NW 0 0,4
16.09.2020 18:00:00 21,5 14,6 21,5 20,0 5 3 17 9 ENE 1 0,2
16.09.2020 17:00:00 23,4 11,1 21,3 20,0 4 2 18 10 W 0 0,2
16.09.2020 16:00:00 26,8 12,8 21,1 20,0 5 3 15 8 NNE 34 0,0
16.09.2020 15:00:00 28,0 11,1 20,9 20,0 6 3 13 7 S 25 0,0
16.09.2020 14:00:00 28,4 12,7 20,7 20,0 5 3 16 8 S 60 0,0
16.09.2020 13:00:00 26,3 12,7 20,6 20,0 4 2 10 5 S 48 0,0
16.09.2020 12:00:00 23,9 12,5 20,5 20,0 3 2 8 4 E 54 0,0
16.09.2020 11:00:00 20,9 12,8 20,5 20,0 3 2 8 4 NE 53 0,0
16.09.2020 10:00:00 17,2 12,5 20,6 20,0 0 0 5 3 N 12 0,0
16.09.2020 09:00:00 14,7 12,4 20,7 20,0 3 1 5 3 NNE 7 0,0
16.09.2020 08:00:00 13,5 11,9 20,8 20,0 3 2 7 4 N 0 0,0
16.09.2020 07:00:00 13,6 11,6 20,9 20,0 0 0 7 4 N 0 0,0
16.09.2020 06:00:00 13,7 12,1 21,0 20,0 6 3 7 4 NNW 0 0,0
16.09.2020 05:00:00 14,3 12,3 21,1 20,0 0 0 5 3 N 0 0,0
16.09.2020 04:00:00 15,0 12,3 21,2 20,0 0 0 4 2 N 0 0,0
16.09.2020 03:00:00 15,6 12,5 21,3 20,0 3 2 9 5 N 0 0,0
16.09.2020 02:00:00 15,8 13,1 21,4 20,0 3 2 5 3 N 0 0,0
16.09.2020 01:00:00 16,3 13,0 21,4 20,0 0 0 5 3 N 0 0,0
16.09.2020 00:00:00 17,1 13,2 21,5 20,0 2 1 6 3 N 0 0,0
15.09.2020 23:00:00 17,8 13,3 21,6 20,0 3 1 9 5 N 0 0,0
15.09.2020 22:00:00 18,5 12,9 21,6 20,0 3 1 6 4 N 0 0,0
15.09.2020 21:00:00 19,2 12,7 21,6 19,9 3 2 9 5 N 0 0,0
15.09.2020 20:00:00 21,1 12,5 21,6 20,0 5 3 15 8 N 0 0,0
15.09.2020 19:00:00 22,5 12,4 21,5 20,0 8 5 19 11 WNW 12 0,0
15.09.2020 18:00:00 24,6 12,9 21,4 20,0 8 4 20 11 W 60 0,0
15.09.2020 17:00:00 28,3 12,2 21,3 20,0 7 4 23 12 S 60 0,0
15.09.2020 16:00:00 28,7 8,9 21,0 20,0 8 4 16 9 SSE 60 0,0
15.09.2020 15:00:00 28,3 10,5 20,8 20,0 7 4 16 9 SSW 60 0,0
15.09.2020 14:00:00 26,7 9,5 20,7 20,0 6 3 11 6 SW 60 0,0
15.09.2020 13:00:00 25,9 7,0 20,5 19,9 4 2 9 5 SSW 60 0,0
15.09.2020 12:00:00 23,9 7,1 20,5 19,9 4 2 7 4 S 60 0,0
15.09.2020 11:00:00 21,0 6,1 20,5 19,9 2 1 7 4 E 60 0,0
15.09.2020 10:00:00 17,9 7,6 20,7 20,0 2 1 7 4 ENE 60 0,0
15.09.2020 09:00:00 13,8 9,0 20,8 19,9 3 2 6 3 NNE 36 0,0
15.09.2020 08:00:00 11,7 8,4 20,9 19,9 2 1 6 3 NNE 0 0,0
15.09.2020 07:00:00 11,9 9,5 21,0 19,9 3 2 6 3 N 0 0,0
15.09.2020 06:00:00 12,5 10,2 21,2 19,9 4 2 7 4 N 0 0,0
15.09.2020 05:00:00 13,3 10,8 21,3 19,9 2 1 8 4 NW 0 0,0
15.09.2020 04:00:00 13,9 11,1 21,4 19,9 3 1 8 4 NNW 0 0,0
15.09.2020 03:00:00 14,9 11,5 21,5 19,9 4 2 15 8 NNW 0 0,0
15.09.2020 02:00:00 15,3 12,1 21,6 19,9 3 1 8 4 WNW 0 0,0
15.09.2020 01:00:00 16,2 12,6 21,7 19,9 0 0 8 4 N 0 0,0
15.09.2020 00:00:00 17,3 13,2 21,8 19,9 4 2 9 5 NW 0 0,0
14.09.2020 23:00:00 17,7 14,0 21,8 19,9 5 3 8 4 NNW 0 0,0
14.09.2020 22:00:00 18,9 14,2 21,9 19,9 4 2 11 6 N 0 0,0
14.09.2020 21:00:00 20,2 14,3 21,9 19,9 3 2 10 5 NNE 0 0,0

tt = Température de l'air
td = dewpoint
tt -20cm = Température de l'air -20cm
tt -100cm = Température de l'air -100cm
ff = Vitesse du vent
fx = gusts
dd = Direction du vent
sd = Ensoleillement
rr = Quantités de précipitations

stations d'obs. à proximité